Flight Track Log - Related Links

Times and Time Zones

All times are in EDT time to prevent confusion due to time zone crossing. See the SWA1787 flight status page for this flight to view local times or setup timezone preferences in your user account.

Time Position Orientation Groundspeed Altitude Reporting Facility
EDT Latitude Longitude Course Direction KTS MPH feet Rate Location/Type
Sat 07:45:04 PM 28.0500 -82.5333 360° North 198 228 3,700  Level Tampa TRACON
Sat 07:47:06 PM 28.0072 -82.6317 244° Southwest 172 198 9,600 2,703 Climbing Miami Center
Sat 07:48:06 PM 27.9247 -82.6606 197° South 247 284 11,900 2,350 Climbing Miami Center
Sat 07:49:06 PM 27.8317 -82.6933 197° South 290 334 14,300 2,750 Climbing Miami Center
Sat 07:50:06 PM 27.7367 -82.7236 196° South 337 388 17,400 2,950 Climbing Miami Center
Sat 07:51:06 PM 27.6322 -82.7253 181° South 373 429 20,200 2,750 Climbing Miami Center
Sat 07:52:06 PM 27.5319 -82.6733 155° Southeast 393 452 22,900 2,400 Climbing Miami Center
Sat 07:53:06 PM 27.4411 -82.6008 145° Southeast 386 444 25,000 1,050 Climbing Miami Center
Sat 07:54:06 PM 27.3514 -82.5497 153° Southeast 398 458 25,000  Level Miami Center
Sat 07:55:06 PM 27.2408 -82.4906 155° Southeast 404 465 25,000  Level Miami Center
Sat 07:56:06 PM 27.1442 -82.4578 163° South 397 457 25,000 -350 Level Miami Center
Sat 07:57:06 PM 27.0525 -82.3997 151° Southeast 398 458 24,300 -500 Descending Miami Center
Sat 07:58:06 PM 26.9794 -82.2914 127° Southeast 381 438 24,000 -150 Descending Miami Center
Sat 07:59:06 PM 26.9139 -82.1978 128° Southeast 381 438 24,000  Level Miami Center
Sat 08:00:06 PM 26.8506 -82.1017 126° Southeast 380 437 24,000 -500 Level Miami Center
Sat 08:01:06 PM 26.7875 -81.9989 124° Southeast 391 450 23,000 -1,000 Descending Miami Center
Sat 08:02:06 PM 26.7197 -81.9122 131° Southeast 385 443 22,000 -1,000 Descending Miami Center
Sat 08:03:06 PM 26.6494 -81.8278 133° Southeast 374 430 21,000 -1,000 Descending Miami Center
Sat 08:04:06 PM 26.5833 -81.7414 131° Southeast 369 425 20,000 -1,000 Descending Miami Center
Sat 08:05:06 PM 26.5172 -81.6575 131° Southeast 364 419 19,000 -600 Descending Miami Center
Sat 08:06:06 PM 26.4594 -81.5764 128° Southeast 364 419 18,800 -600 Descending Miami Center
Sat 08:07:06 PM 26.4081 -81.4839 122° Southeast 364 419 17,800 -1,450 Descending Miami Center
Sat 08:08:06 PM 26.3589 -81.3939 121° Southeast 352 405 15,900 -1,800 Descending Miami Center
Sat 08:09:06 PM 26.3069 -81.3108 125° Southeast 337 388 14,200 -1,700 Descending Miami Center
Sat 08:10:06 PM 26.2594 -81.2303 123° Southeast 332 382 12,500 -1,707 Descending Miami Center
Sat 08:11:02 PM 26.2056 -81.1472 126° Southeast 308 354 10,900 -1,300 Descending Miami Center
Sat 08:12:06 PM 26.1678 -81.0742 120° Southeast 309 356 9,900 -1,161 Descending Miami Center
Sat 08:13:06 PM 26.1242 -81.0008 124° Southeast 294 338 8,500 -1,248 Descending Miami Center
Sat 08:14:11 PM 26.0997 -80.9031 106° East 282 325 7,300 -1,050 Descending Miami Center
Sat 08:15:06 PM 26.0994 -80.8311 90° East 270 311 6,400 -678 Descending Miami Center
Sat 08:16:06 PM 26.0933 -80.7456 95° East 275 316 6,000 -200 Descending Miami Center
Sat 08:17:06 PM 26.0872 -80.6597 95° East 275 316 6,000  Level Miami Center
Sat 08:18:06 PM 26.0811 -80.5739 95° East 275 316 6,000 -100 Level Miami Center
Sat 08:19:06 PM 26.0792 -80.4883 91° East 275 316 5,800 -600 Descending Miami Center
Sat 08:20:06 PM 26.0792 -80.4050 90° East 269 310 4,800 -919 Descending Miami Center
Sat 08:21:10 PM 26.0747 -80.3264 94° East 197 227 3,900 -1,008 Descending Miami Center
Sat 08:22:17 PM 26.0761 -80.2708 88° East 152 175 2,600 -1,359 Descending Miami Center
Sat 08:23:18 PM 26.0750 -80.2222 91° East 150 173 1,000 -1,190 Descending Miami Center
Sat 08:24:13 PM 26.0739 -80.1828 92° East 138 159 300 -764 Descending Miami Center
Sat 08:26:00 PM 26.0667 -80.1500 180° South  Level FlightAware Approximate

Login

Don't have an account? Register now (free) for customized features, flight alerts, and more!